< < Back
Terminal Aerodrome Forecast


Current Version              Previous Versions:   1  2  3  4  5  6  7  8  9  

Terminal Aerodrome Forecast

281
FTUS44 KMOB 241802 RRA
TAFPNS
TAF
KPNS 241802Z 2418/2518 VRB06KT P6SM FEW035
     FM242000 11008KT P6SM VCTS SCT045CB SCT150 BKN250
      TEMPO 2420/2424 5SM -TSRA BKN040CB
     FM250300 VRB04KT P6SM FEW250
     FM250900 06004KT P6SM SKC=

Latest METAR

966
SAUS70 KWBC 242100 RRF
MTRPNS
METAR KPNS 242053Z 06005KT 5SM -RA BKN021 BKN042 BKN070 28/26 A3010 RMK
AO2 LTG DSNT ALQDS RAB04E27B40 TSE33 SLP195 P0000 60001
T02830256 58015


USA.gov is the U.S. government's official web portal to all federal, state and local government web resources and services.